Stations météo

réclame
Mon MeteoGroup
Cap Gris Nez, France (7004): Température de l'air & dewpoint: 17.10.2019 17:00:00 - 23.10.2019 17:00:00 (CEST)Cap Gris Nez, France (7004): Vitesse du vent & gusts: 17.10.2019 17:00:00 - 23.10.2019 17:00:00 (CEST)Cap Gris Nez, France (7004): Direction du vent: 17.10.2019 17:00:00 - 23.10.2019 17:00:00 (CEST)Cap Gris Nez, France (7004): Quantités de précipitations: 17.10.2019 17:00:00 - 23.10.2019 17:00:00 (CEST)
Date & Time tt [°C] td [°C] ff [km/h] ff [knt] fx [km/h] fx [knt] dd rr [mm]
23.10.2019 17:00:00 13,7 11,7 11 6 24 13 E 0,0
23.10.2019 16:00:00 13,7 11,9 21 11 31 17 ENE 0,0
23.10.2019 15:00:00 13,8 11,8 22 12 31 17 ENE 0,0
23.10.2019 14:00:00 13,6 11,3 22 12 29 16 E -
23.10.2019 13:00:00 13,7 11,0 24 13 41 22 E 0,0
23.10.2019 12:00:00 12,2 10,6 29 16 41 22 E 0,0
23.10.2019 11:00:00 11,5 10,2 24 13 37 20 E 0,0
23.10.2019 10:00:00 11,1 10,0 26 14 44 24 E 0,0
23.10.2019 09:00:00 11,3 10,0 26 14 39 21 ENE 0,0
23.10.2019 08:00:00 11,3 9,9 22 12 39 21 ENE -
23.10.2019 07:00:00 10,5 9,3 18 10 34 18 E 0,0
23.10.2019 06:00:00 10,6 9,5 18 10 29 16 E 0,0
23.10.2019 05:00:00 10,5 9,6 16 9 22 12 E 0,0
23.10.2019 04:00:00 10,7 9,8 11 6 16 9 E 0,0
23.10.2019 03:00:00 10,6 9,7 11 6 13 7 ENE 0,0
23.10.2019 02:00:00 10,3 9,2 9 5 22 12 E -
23.10.2019 01:00:00 10,5 9,1 16 9 26 14 ESE 0,0
23.10.2019 00:00:00 10,1 8,7 15 8 24 13 ESE 0,0
22.10.2019 23:00:00 10,2 8,8 15 8 18 10 ESE 0,0
22.10.2019 22:00:00 10,1 8,2 13 7 15 8 ESE 0,0
22.10.2019 21:00:00 10,7 7,8 11 6 13 7 ESE 0,0
22.10.2019 20:00:00 10,6 7,5 11 6 13 7 E -
22.10.2019 19:00:00 11,4 8,1 8 4 9 5 ENE 0,0
22.10.2019 18:00:00 12,3 8,0 5 3 9 5 NE 0,0
22.10.2019 17:00:00 13,3 8,1 5 3 9 5 N 0,0
22.10.2019 16:00:00 13,1 8,8 5 3 11 6 NNW 0,0
22.10.2019 15:00:00 13,3 10,1 4 2 11 6 N 0,0
22.10.2019 14:00:00 13,0 10,7 5 3 9 5 NW -
22.10.2019 13:00:00 12,7 10,4 5 3 16 9 NNW 0,0
22.10.2019 12:00:00 12,0 10,4 11 6 24 13 NNW 0,0
22.10.2019 11:00:00 12,7 10,4 15 8 22 12 W 0,0
22.10.2019 10:00:00 12,4 10,5 8 4 15 8 SSW 0,0
22.10.2019 09:00:00 11,5 9,6 8 4 13 7 SW 0,0
22.10.2019 08:00:00 11,5 9,7 5 3 13 7 NW -
22.10.2019 07:00:00 11,5 9,7 8 4 18 10 NW 0,0
22.10.2019 06:00:00 11,6 10,2 13 7 22 12 NNW 0,0
22.10.2019 05:00:00 11,5 10,4 13 7 24 13 N 0,0
22.10.2019 04:00:00 11,5 10,4 16 9 28 15 NNW 0,0
22.10.2019 03:00:00 11,5 10,2 22 12 34 18 NNW 0,0
22.10.2019 02:00:00 11,8 10,4 24 13 34 18 NNW -
22.10.2019 01:00:00 12,1 10,7 24 13 34 18 NW 0,0
22.10.2019 00:00:00 12,3 10,7 24 13 35 19 NW 0,0
21.10.2019 23:00:00 12,5 11,1 24 13 42 23 NNW 0,0
21.10.2019 22:00:00 12,6 11,2 29 16 44 24 NNW 0,0
21.10.2019 21:00:00 12,5 11,2 35 19 46 25 NNW 0,0
21.10.2019 20:00:00 12,9 11,3 35 19 50 27 NNW -
21.10.2019 19:00:00 12,7 11,1 39 21 59 32 N 0,0
21.10.2019 18:00:00 12,3 11,2 46 25 63 34 N 0,0
21.10.2019 17:00:00 12,4 11,9 46 25 61 33 NNW 0,0
21.10.2019 16:00:00 12,7 12,4 48 26 67 36 N 0,0
21.10.2019 15:00:00 12,6 12,1 48 26 67 36 NNW 0,0
21.10.2019 14:00:00 13,0 12,4 4 2 9 5 W -
21.10.2019 13:00:00 12,2 11,6 4 2 9 5 SSW 0,0
21.10.2019 12:00:00 12,1 11,6 5 3 28 15 ESE 0,0
21.10.2019 11:00:00 12,2 11,7 21 11 31 17 NE 0,2
21.10.2019 10:00:00 12,0 11,4 26 14 67 36 ENE 1,0
21.10.2019 09:00:00 12,4 11,1 52 28 68 37 NE 0,0
21.10.2019 08:00:00 12,3 11,2 50 27 68 37 NE -
21.10.2019 07:00:00 12,1 11,2 41 22 67 36 ENE 2,0
21.10.2019 06:00:00 11,4 10,6 34 18 65 35 ENE 2,0
21.10.2019 05:00:00 11,8 10,7 50 27 76 41 NE 2,0
21.10.2019 04:00:00 11,5 8,5 57 31 72 39 NE 0,2
21.10.2019 03:00:00 11,9 9,8 34 18 52 28 NE 1,0
21.10.2019 02:00:00 12,2 10,4 31 17 50 27 NE -
21.10.2019 01:00:00 11,8 10,5 28 15 57 31 ENE 3,0
21.10.2019 00:00:00 12,7 10,9 41 22 61 33 NNE 0,6
20.10.2019 23:00:00 12,2 10,4 42 23 67 36 NNE 1,0
20.10.2019 22:00:00 12,9 10,3 42 23 57 31 NNE 0,2
20.10.2019 21:00:00 13,2 9,4 35 19 52 28 NNE 0,0
20.10.2019 20:00:00 12,9 9,0 37 20 52 28 NNE -
20.10.2019 19:00:00 12,7 8,4 34 18 46 25 NNE 0,0
20.10.2019 18:00:00 12,8 8,9 34 18 46 25 NNE 0,0
20.10.2019 17:00:00 12,5 8,8 34 18 48 26 NNE 0,0
20.10.2019 16:00:00 12,7 9,3 34 18 44 24 NNE 0,0
20.10.2019 15:00:00 12,5 9,5 31 17 41 22 NNE 0,0
20.10.2019 14:00:00 12,9 9,7 29 16 41 22 NNE -
20.10.2019 13:00:00 12,9 9,5 26 14 37 20 NNE 0,0
20.10.2019 12:00:00 12,6 9,8 28 15 46 25 N 0,0
20.10.2019 11:00:00 12,4 10,6 31 17 39 21 N 0,0
20.10.2019 10:00:00 12,2 10,1 24 13 34 18 N 0,0
20.10.2019 09:00:00 12,2 10,1 21 11 26 14 N 0,0
20.10.2019 08:00:00 11,7 9,6 9 5 15 8 NE -
20.10.2019 07:00:00 11,4 9,5 8 4 9 5 NE 0,0
20.10.2019 06:00:00 10,9 9,5 0 0 11 6 N 0,0
20.10.2019 05:00:00 10,7 9,5 8 4 13 7 SSE 0,0
20.10.2019 04:00:00 11,1 9,7 9 5 13 7 SSE 0,0
20.10.2019 03:00:00 11,7 9,3 5 3 15 8 S 0,0
20.10.2019 02:00:00 11,7 9,1 2 1 16 9 SE -
20.10.2019 01:00:00 12,7 9,7 16 9 37 20 WNW 0,0
20.10.2019 00:00:00 13,6 9,8 22 12 34 18 SW 0,0
19.10.2019 23:00:00 13,7 9,9 22 12 29 16 WSW 0,0
19.10.2019 22:00:00 12,7 9,3 21 11 37 20 SSW 0,0
19.10.2019 21:00:00 13,5 9,5 24 13 39 21 SW 0,0
19.10.2019 20:00:00 13,5 9,9 29 16 44 24 SW -
19.10.2019 19:00:00 13,9 10,1 35 19 50 27 WSW 0,0
19.10.2019 18:00:00 13,7 10,5 37 20 59 32 SW 0,0
19.10.2019 17:00:00 13,9 10,1 41 22 54 29 SW 0,0
19.10.2019 16:00:00 11,8 10,0 41 22 65 35 WSW 3,0
19.10.2019 15:00:00 13,4 10,6 37 20 80 43 WSW 1,0
19.10.2019 14:00:00 13,3 9,9 34 18 55 30 SW -
19.10.2019 13:00:00 13,6 10,9 35 19 54 29 WSW 0,4
19.10.2019 12:00:00 12,3 9,5 35 19 44 24 W 0,4
19.10.2019 11:00:00 11,9 10,3 28 15 50 27 SSW 0,6
19.10.2019 10:00:00 11,0 8,9 35 19 55 30 SW 2,0
19.10.2019 09:00:00 11,8 10,2 39 21 70 38 SW 1,0
19.10.2019 08:00:00 12,3 9,1 39 21 65 35 SW -
19.10.2019 07:00:00 11,4 10,6 42 23 87 47 SW 5,0
19.10.2019 06:00:00 13,3 11,0 44 24 76 41 SSW 0,2
19.10.2019 05:00:00 13,8 11,1 52 28 68 37 SSW 0,0
19.10.2019 04:00:00 13,6 10,9 50 27 65 35 SSW 0,0
19.10.2019 03:00:00 13,6 10,9 52 28 67 36 SSW 0,0
19.10.2019 02:00:00 13,7 10,7 50 27 70 38 SSW -
19.10.2019 01:00:00 11,6 10,2 41 22 102 55 WSW 3,0
19.10.2019 00:00:00 14,1 10,5 54 29 78 42 SW 0,6
18.10.2019 23:00:00 13,1 10,3 52 28 85 46 SSW 0,2
18.10.2019 22:00:00 14,3 9,5 63 34 87 47 SSW 0,0
18.10.2019 21:00:00 13,7 9,7 57 31 91 49 SSW 0,0
18.10.2019 20:00:00 14,2 9,6 54 29 89 48 SSW -
18.10.2019 19:00:00 11,7 10,1 68 37 98 53 WSW 10,0
18.10.2019 18:00:00 12,3 8,9 63 34 89 48 WSW 0,0
18.10.2019 17:00:00 14,3 9,9 55 30 107 58 SW 0,4
18.10.2019 16:00:00 14,6 10,2 59 32 93 50 SW 0,0
18.10.2019 15:00:00 14,1 10,7 57 31 91 49 SW 0,4
18.10.2019 14:00:00 13,0 9,3 59 32 91 49 SW -
18.10.2019 13:00:00 12,2 8,7 41 22 87 47 SW 0,6
18.10.2019 12:00:00 12,6 9,6 41 22 74 40 SW 0,0
18.10.2019 11:00:00 12,8 8,5 55 30 76 41 W 0,0
18.10.2019 10:00:00 11,4 8,8 55 30 83 45 WSW 0,2
18.10.2019 09:00:00 11,4 10,0 61 33 94 51 SW 0,8
18.10.2019 08:00:00 12,0 9,2 44 24 74 40 SSW -
18.10.2019 07:00:00 11,1 10,2 54 29 74 40 WSW 7,0
18.10.2019 06:00:00 13,4 11,1 39 21 72 39 S 0,0
18.10.2019 05:00:00 14,0 11,2 48 26 70 38 SSW 0,0
18.10.2019 04:00:00 13,9 10,7 52 28 67 36 SSW 0,0
18.10.2019 03:00:00 14,2 11,4 48 26 67 36 SSW 0,0
18.10.2019 02:00:00 14,4 11,7 50 27 65 35 SSW -
18.10.2019 01:00:00 14,4 11,9 46 25 63 34 SSW 0,0
18.10.2019 00:00:00 14,6 12,1 44 24 59 32 SSW 0,0
17.10.2019 23:00:00 13,9 12,1 26 14 57 31 S 0,0
17.10.2019 22:00:00 14,1 12,0 39 21 52 28 SSW 2,0
17.10.2019 21:00:00 12,8 11,7 24 13 63 34 SW 2,0
17.10.2019 20:00:00 14,1 11,4 34 18 52 28 SW -
17.10.2019 19:00:00 14,9 11,3 31 17 50 27 SSW 0,0
17.10.2019 18:00:00 14,6 11,0 39 21 52 28 SSW 0,0
17.10.2019 17:00:00 14,5 10,3 37 20 57 31 SSW 0,0

tt = Température de l'air
td = dewpoint
ff = Vitesse du vent
fx = gusts
dd = Direction du vent
rr = Quantités de précipitations

stations d'obs. à proximité